XBRLQ MMCU-MMGA
Flight info
| Callsign | XBRLQ |
|---|---|
| Flight time | 1h 15m |
| Altitude | 10500 |
| Route | DCT MMGA |
| Aircraft | C172/L-S/C |
Departure
| Time | 2026-05-04 22:48 |
|---|---|
| Airport | General Roberto Fierro Villalobos International Airport (MMCU) |
Arrival
| Time | 2026-05-05 00:03 |
|---|---|
| Airport | Creel International Airport / Barrancas del Cobre Regional Airport (MMGA) |
| Time | Latitude | Longitude | Altitude | Speed | Heading |
|---|---|---|---|---|---|
| 2026-05-04 22:29 | 28.70138 | -105.96840 | 4441 ft | 0 kts | 191° |
| 2026-05-04 22:35 | 28.70177 | -105.96893 | 4441 ft | 0 kts | 10° |
| 2026-05-04 22:40 | 28.70170 | -105.96889 | 4441 ft | 2 kts | 287° |
| 2026-05-04 22:41 | 28.70172 | -105.96880 | 4441 ft | 0 kts | 207° |
| 2026-05-04 22:41 | 28.70160 | -105.96880 | 4441 ft | 8 kts | 157° |
| 2026-05-04 22:41 | 28.70137 | -105.96804 | 4441 ft | 11 kts | 104° |
| 2026-05-04 22:42 | 28.70070 | -105.96788 | 4441 ft | 13 kts | 193° |
| 2026-05-04 22:42 | 28.69969 | -105.96811 | 4443 ft | 12 kts | 184° |
| 2026-05-04 22:42 | 28.69955 | -105.96756 | 4444 ft | 6 kts | 57° |
| 2026-05-04 22:42 | 28.69975 | -105.96722 | 4444 ft | 4 kts | 54° |
| 2026-05-04 22:43 | 28.69989 | -105.96701 | 4444 ft | 2 kts | 53° |
| 2026-05-04 22:43 | 28.69991 | -105.96698 | 4444 ft | 0 kts | 52° |
| 2026-05-04 22:43 | 28.70003 | -105.96643 | 4444 ft | 12 kts | 137° |
| 2026-05-04 22:44 | 28.69914 | -105.96656 | 4443 ft | 15 kts | 191° |
| 2026-05-04 22:44 | 28.69775 | -105.96686 | 4443 ft | 25 kts | 190° |
| 2026-05-04 22:44 | 28.69599 | -105.96725 | 4441 ft | 22 kts | 189° |
| 2026-05-04 22:44 | 28.69452 | -105.96756 | 4441 ft | 21 kts | 192° |
| 2026-05-04 22:45 | 28.69310 | -105.96794 | 4439 ft | 21 kts | 196° |
| 2026-05-04 22:45 | 28.69287 | -105.96791 | 4439 ft | 0 kts | 11° |
| 2026-05-04 22:46 | 28.69396 | -105.96768 | 4441 ft | 35 kts | 11° |
| 2026-05-04 22:47 | 28.69753 | -105.96690 | 4442 ft | 69 kts | 11° |
| 2026-05-04 22:47 | 28.70293 | -105.96572 | 4486 ft | 86 kts | 11° |
| 2026-05-04 22:47 | 28.70901 | -105.96428 | 4608 ft | 91 kts | 12° |
| 2026-05-04 22:47 | 28.71519 | -105.96283 | 4782 ft | 93 kts | 11° |
| 2026-05-04 22:48 | 28.72162 | -105.96134 | 4962 ft | 95 kts | 12° |
| 2026-05-04 22:48 | 28.72828 | -105.96000 | 5202 ft | 94 kts | 1° |
| 2026-05-04 22:48 | 28.73393 | -105.96326 | 5382 ft | 97 kts | 307° |
| 2026-05-04 22:48 | 28.73462 | -105.97067 | 5486 ft | 102 kts | 242° |
| 2026-05-04 22:49 | 28.72911 | -105.97578 | 5566 ft | 106 kts | 211° |
| 2026-05-04 22:49 | 28.72288 | -105.98008 | 5648 ft | 105 kts | 212° |
| 2026-05-04 22:49 | 28.71669 | -105.98432 | 5728 ft | 102 kts | 212° |
| 2026-05-04 22:49 | 28.71063 | -105.98844 | 5812 ft | 100 kts | 211° |
| 2026-05-04 22:50 | 28.70449 | -105.99264 | 5899 ft | 105 kts | 211° |
| 2026-05-04 22:50 | 28.69821 | -105.99694 | 6001 ft | 107 kts | 210° |
| 2026-05-04 22:50 | 28.69175 | -106.00132 | 6122 ft | 109 kts | 209° |
| 2026-05-04 22:50 | 28.68524 | -106.00576 | 6254 ft | 110 kts | 210° |
| 2026-05-04 22:51 | 28.67851 | -106.01042 | 6360 ft | 112 kts | 211° |
| 2026-05-04 22:51 | 28.67222 | -106.01478 | 6459 ft | 103 kts | 209° |
| 2026-05-04 22:51 | 28.66631 | -106.01898 | 6570 ft | 94 kts | 212° |
| 2026-05-04 22:51 | 28.66075 | -106.02318 | 6671 ft | 100 kts | 212° |
| 2026-05-04 22:52 | 28.65486 | -106.02751 | 6797 ft | 101 kts | 212° |
| 2026-05-04 22:52 | 28.64868 | -106.03198 | 6908 ft | 106 kts | 213° |
| 2026-05-04 22:52 | 28.64246 | -106.03643 | 7026 ft | 105 kts | 213° |
| 2026-05-04 22:52 | 28.63726 | -106.04221 | 7062 ft | 109 kts | 236° |
| 2026-05-04 22:53 | 28.63409 | -106.04993 | 7165 ft | 109 kts | 242° |
| 2026-05-04 22:53 | 28.63105 | -106.05785 | 7248 ft | 107 kts | 244° |
| 2026-05-04 22:53 | 28.62807 | -106.06555 | 7331 ft | 106 kts | 244° |
| 2026-05-04 22:53 | 28.62512 | -106.07308 | 7411 ft | 102 kts | 243° |
| 2026-05-04 22:54 | 28.62219 | -106.08052 | 7491 ft | 103 kts | 243° |
| 2026-05-04 22:54 | 28.61940 | -106.08767 | 7575 ft | 98 kts | 242° |
| 2026-05-04 22:54 | 28.61660 | -106.09478 | 7651 ft | 96 kts | 243° |
| 2026-05-04 22:54 | 28.61388 | -106.10170 | 7738 ft | 97 kts | 243° |
| 2026-05-04 22:55 | 28.61115 | -106.10865 | 7827 ft | 95 kts | 244° |
| 2026-05-04 22:55 | 28.60839 | -106.11566 | 7918 ft | 98 kts | 243° |
| 2026-05-04 22:55 | 28.60561 | -106.12270 | 8013 ft | 99 kts | 244° |
| 2026-05-04 22:55 | 28.60279 | -106.12991 | 8100 ft | 100 kts | 243° |
| 2026-05-04 22:56 | 28.59995 | -106.13712 | 8187 ft | 99 kts | 243° |
| 2026-05-04 22:56 | 28.59710 | -106.14432 | 8274 ft | 99 kts | 244° |
| 2026-05-04 22:56 | 28.59430 | -106.15135 | 8366 ft | 99 kts | 242° |
| 2026-05-04 22:56 | 28.59137 | -106.15875 | 8372 ft | 105 kts | 243° |
| 2026-05-04 22:57 | 28.58835 | -106.16631 | 8359 ft | 106 kts | 243° |
| 2026-05-04 22:57 | 28.58528 | -106.17398 | 8360 ft | 108 kts | 244° |
| 2026-05-04 22:57 | 28.58211 | -106.18182 | 8358 ft | 109 kts | 241° |
| 2026-05-04 22:57 | 28.57802 | -106.18900 | 8344 ft | 109 kts | 235° |
| 2026-05-04 22:58 | 28.57392 | -106.19626 | 8334 ft | 107 kts | 236° |
| 2026-05-04 22:58 | 28.56998 | -106.20328 | 8326 ft | 104 kts | 236° |
| 2026-05-04 22:58 | 28.56620 | -106.21004 | 8346 ft | 98 kts | 235° |
| 2026-05-04 22:58 | 28.56264 | -106.21646 | 8423 ft | 97 kts | 235° |
| 2026-05-04 22:59 | 28.55908 | -106.22276 | 8502 ft | 96 kts | 235° |
| 2026-05-04 22:59 | 28.55526 | -106.22955 | 8499 ft | 105 kts | 236° |
| 2026-05-04 22:59 | 28.55129 | -106.23658 | 8495 ft | 108 kts | 235° |
| 2026-05-04 22:59 | 28.54718 | -106.24382 | 8491 ft | 110 kts | 236° |
| 2026-05-04 23:00 | 28.54304 | -106.25108 | 8481 ft | 107 kts | 236° |
| 2026-05-04 23:00 | 28.53902 | -106.25816 | 8475 ft | 106 kts | 236° |
| 2026-05-04 23:00 | 28.53503 | -106.26524 | 8463 ft | 105 kts | 236° |
| 2026-05-04 23:00 | 28.53104 | -106.27230 | 8456 ft | 109 kts | 236° |
| 2026-05-04 23:01 | 28.52693 | -106.27951 | 8436 ft | 106 kts | 235° |
| 2026-05-04 23:01 | 28.52296 | -106.28649 | 8438 ft | 105 kts | 236° |
| 2026-05-04 23:01 | 28.51905 | -106.29319 | 8433 ft | 100 kts | 233° |
| 2026-05-04 23:01 | 28.51517 | -106.29994 | 8422 ft | 105 kts | 235° |
| 2026-05-04 23:02 | 28.51120 | -106.30690 | 8419 ft | 104 kts | 234° |
| 2026-05-04 23:02 | 28.50716 | -106.31392 | 8412 ft | 107 kts | 234° |
| 2026-05-04 23:02 | 28.50312 | -106.32098 | 8411 ft | 105 kts | 235° |
| 2026-05-04 23:02 | 28.49917 | -106.32790 | 8420 ft | 107 kts | 235° |
| 2026-05-04 23:03 | 28.49501 | -106.33509 | 8422 ft | 110 kts | 233° |
| 2026-05-04 23:03 | 28.49075 | -106.34244 | 8423 ft | 112 kts | 234° |
| 2026-05-04 23:03 | 28.48640 | -106.34987 | 8426 ft | 111 kts | 233° |
| 2026-05-04 23:03 | 28.48197 | -106.35708 | 8419 ft | 109 kts | 235° |
| 2026-05-04 23:04 | 28.47776 | -106.36413 | 8433 ft | 110 kts | 235° |
| 2026-05-04 23:04 | 28.47349 | -106.37132 | 8423 ft | 109 kts | 234° |
| 2026-05-04 23:04 | 28.46920 | -106.37851 | 8433 ft | 110 kts | 235° |
| 2026-05-04 23:04 | 28.46489 | -106.38574 | 8422 ft | 113 kts | 234° |
| 2026-05-04 23:05 | 28.46059 | -106.39305 | 8431 ft | 112 kts | 235° |
| 2026-05-04 23:05 | 28.45635 | -106.40030 | 8421 ft | 106 kts | 235° |
| 2026-05-04 23:05 | 28.45236 | -106.40731 | 8420 ft | 106 kts | 235° |
| 2026-05-04 23:05 | 28.44848 | -106.41413 | 8419 ft | 99 kts | 234° |
| 2026-05-04 23:06 | 28.44479 | -106.42045 | 8419 ft | 97 kts | 234° |
| 2026-05-04 23:06 | 28.44094 | -106.42686 | 8415 ft | 100 kts | 234° |
| 2026-05-04 23:06 | 28.43736 | -106.43357 | 8368 ft | 101 kts | 258° |
| 2026-05-04 23:06 | 28.43423 | -106.44039 | 8313 ft | 98 kts | 236° |
| 2026-05-04 23:07 | 28.43073 | -106.44626 | 8411 ft | 85 kts | 235° |
| 2026-05-04 23:07 | 28.42762 | -106.45221 | 8402 ft | 93 kts | 237° |
| 2026-05-04 23:07 | 28.42403 | -106.45889 | 8362 ft | 104 kts | 236° |
| 2026-05-04 23:07 | 28.42014 | -106.46613 | 8319 ft | 107 kts | 237° |
| 2026-05-04 23:08 | 28.41615 | -106.47355 | 8294 ft | 114 kts | 237° |
| 2026-05-04 23:08 | 28.41200 | -106.48127 | 8241 ft | 113 kts | 237° |
| 2026-05-04 23:08 | 28.40796 | -106.48877 | 8246 ft | 110 kts | 237° |
| 2026-05-04 23:08 | 28.40400 | -106.49614 | 8240 ft | 110 kts | 236° |
| 2026-05-04 23:09 | 28.40011 | -106.50342 | 8242 ft | 107 kts | 237° |
| 2026-05-04 23:09 | 28.39621 | -106.51077 | 8244 ft | 109 kts | 237° |
| 2026-05-04 23:09 | 28.39233 | -106.51809 | 8236 ft | 107 kts | 238° |
| 2026-05-04 23:09 | 28.38857 | -106.52518 | 8237 ft | 99 kts | 237° |
| 2026-05-04 23:10 | 28.38508 | -106.53177 | 8246 ft | 101 kts | 236° |
| 2026-05-04 23:10 | 28.38139 | -106.53874 | 8237 ft | 103 kts | 237° |
| 2026-05-04 23:10 | 28.37771 | -106.54574 | 8232 ft | 102 kts | 237° |
| 2026-05-04 23:10 | 28.37404 | -106.55273 | 8239 ft | 103 kts | 239° |
| 2026-05-04 23:11 | 28.37055 | -106.55944 | 8245 ft | 98 kts | 238° |
| 2026-05-04 23:11 | 28.36703 | -106.56620 | 8241 ft | 99 kts | 239° |
| 2026-05-04 23:11 | 28.36356 | -106.57287 | 8245 ft | 98 kts | 238° |
| 2026-05-04 23:11 | 28.36004 | -106.57954 | 8252 ft | 99 kts | 239° |
| 2026-05-04 23:12 | 28.35646 | -106.58628 | 8253 ft | 102 kts | 238° |
| 2026-05-04 23:12 | 28.35279 | -106.59327 | 8252 ft | 103 kts | 238° |
| 2026-05-04 23:12 | 28.34914 | -106.60024 | 8259 ft | 103 kts | 240° |
| 2026-05-04 23:12 | 28.34562 | -106.60699 | 8253 ft | 99 kts | 238° |
| 2026-05-04 23:13 | 28.34216 | -106.61360 | 8254 ft | 96 kts | 239° |
| 2026-05-04 23:13 | 28.33868 | -106.62019 | 8255 ft | 99 kts | 239° |
| 2026-05-04 23:13 | 28.33633 | -106.62464 | 8254 ft | 99 kts | 239° |
| 2026-05-04 23:13 | 28.33288 | -106.63125 | 8258 ft | 97 kts | 238° |
| 2026-05-04 23:14 | 28.32934 | -106.63800 | 8258 ft | 101 kts | 238° |
| 2026-05-04 23:14 | 28.32578 | -106.64488 | 8266 ft | 102 kts | 239° |
| 2026-05-04 23:14 | 28.32218 | -106.65179 | 8261 ft | 100 kts | 240° |
| 2026-05-04 23:14 | 28.31854 | -106.65873 | 8272 ft | 104 kts | 240° |
| 2026-05-04 23:15 | 28.31480 | -106.66581 | 8268 ft | 106 kts | 239° |
| 2026-05-04 23:15 | 28.31103 | -106.67299 | 8275 ft | 105 kts | 241° |
| 2026-05-04 23:15 | 28.30727 | -106.68002 | 8272 ft | 103 kts | 240° |
| 2026-05-04 23:15 | 28.30362 | -106.68688 | 8274 ft | 102 kts | 241° |
| 2026-05-04 23:16 | 28.29997 | -106.69373 | 8268 ft | 100 kts | 239° |
| 2026-05-04 23:16 | 28.29639 | -106.70045 | 8265 ft | 97 kts | 239° |
| 2026-05-04 23:16 | 28.29246 | -106.70703 | 8268 ft | 105 kts | 236° |
| 2026-05-04 23:16 | 28.28812 | -106.71360 | 8272 ft | 101 kts | 234° |
| 2026-05-04 23:17 | 28.28386 | -106.71990 | 8274 ft | 104 kts | 234° |
| 2026-05-04 23:17 | 28.27944 | -106.72657 | 8284 ft | 106 kts | 234° |
| 2026-05-04 23:17 | 28.27493 | -106.73335 | 8284 ft | 107 kts | 235° |
| 2026-05-04 23:17 | 28.27040 | -106.74013 | 8290 ft | 108 kts | 234° |
| 2026-05-04 23:18 | 28.26612 | -106.74691 | 8288 ft | 104 kts | 235° |
| 2026-05-04 23:18 | 28.26191 | -106.75346 | 8282 ft | 103 kts | 234° |
| 2026-05-04 23:18 | 28.25770 | -106.75995 | 8298 ft | 104 kts | 237° |
| 2026-05-04 23:18 | 28.25322 | -106.76691 | 8287 ft | 110 kts | 234° |
| 2026-05-04 23:19 | 28.24861 | -106.77404 | 8289 ft | 114 kts | 236° |
| 2026-05-04 23:19 | 28.24411 | -106.78092 | 8281 ft | 107 kts | 234° |
| 2026-05-04 23:19 | 28.23973 | -106.78759 | 8291 ft | 105 kts | 236° |
| 2026-05-04 23:19 | 28.23523 | -106.79442 | 8296 ft | 109 kts | 235° |
| 2026-05-04 23:20 | 28.23073 | -106.80130 | 8298 ft | 109 kts | 234° |
| 2026-05-04 23:20 | 28.22619 | -106.80816 | 8290 ft | 107 kts | 236° |
| 2026-05-04 23:20 | 28.22175 | -106.81485 | 8290 ft | 106 kts | 234° |
| 2026-05-04 23:20 | 28.21736 | -106.82150 | 8283 ft | 102 kts | 233° |
| 2026-05-04 23:21 | 28.21354 | -106.82729 | 8308 ft | 91 kts | 236° |
| 2026-05-04 23:21 | 28.20960 | -106.83335 | 8307 ft | 98 kts | 235° |
| 2026-05-04 23:21 | 28.20553 | -106.83953 | 8295 ft | 95 kts | 235° |
| 2026-05-04 23:21 | 28.20161 | -106.84555 | 8315 ft | 98 kts | 237° |
| 2026-05-04 23:22 | 28.19749 | -106.85191 | 8320 ft | 101 kts | 236° |
| 2026-05-04 23:22 | 28.19334 | -106.85822 | 8314 ft | 100 kts | 236° |
| 2026-05-04 23:22 | 28.18908 | -106.86460 | 8318 ft | 102 kts | 235° |
| 2026-05-04 23:22 | 28.18474 | -106.87108 | 8320 ft | 104 kts | 235° |
| 2026-05-04 23:23 | 28.18038 | -106.87771 | 8313 ft | 103 kts | 237° |
| 2026-05-04 23:23 | 28.17618 | -106.88401 | 8318 ft | 100 kts | 237° |
| 2026-05-04 23:23 | 28.17211 | -106.89021 | 8306 ft | 95 kts | 237° |
| 2026-05-04 23:23 | 28.16813 | -106.89620 | 8311 ft | 94 kts | 235° |
| 2026-05-04 23:24 | 28.16419 | -106.90212 | 8320 ft | 96 kts | 237° |
| 2026-05-04 23:24 | 28.16009 | -106.90832 | 8321 ft | 100 kts | 235° |
| 2026-05-04 23:24 | 28.15582 | -106.91451 | 8328 ft | 100 kts | 237° |
| 2026-05-04 23:24 | 28.15155 | -106.92077 | 8335 ft | 101 kts | 237° |
| 2026-05-04 23:25 | 28.14728 | -106.92720 | 8332 ft | 105 kts | 236° |
| 2026-05-04 23:25 | 28.14290 | -106.93385 | 8339 ft | 106 kts | 236° |
| 2026-05-04 23:25 | 28.13848 | -106.94044 | 8337 ft | 105 kts | 237° |
| 2026-05-04 23:25 | 28.13413 | -106.94694 | 8332 ft | 102 kts | 237° |
| 2026-05-04 23:26 | 28.12992 | -106.95324 | 8346 ft | 99 kts | 237° |
| 2026-05-04 23:26 | 28.12574 | -106.95958 | 8341 ft | 102 kts | 237° |
| 2026-05-04 23:26 | 28.12152 | -106.96590 | 8342 ft | 102 kts | 236° |
| 2026-05-04 23:26 | 28.11728 | -106.97231 | 8333 ft | 100 kts | 236° |
| 2026-05-04 23:27 | 28.11318 | -106.97852 | 8329 ft | 96 kts | 237° |
| 2026-05-04 23:27 | 28.10922 | -106.98448 | 8338 ft | 96 kts | 237° |
| 2026-05-04 23:27 | 28.10508 | -106.99077 | 8341 ft | 102 kts | 237° |
| 2026-05-04 23:27 | 28.10085 | -106.99721 | 8338 ft | 102 kts | 236° |
| 2026-05-04 23:28 | 28.09667 | -107.00352 | 8342 ft | 100 kts | 237° |
| 2026-05-04 23:28 | 28.09249 | -107.00984 | 8345 ft | 101 kts | 237° |
| 2026-05-04 23:28 | 28.08823 | -107.01633 | 8340 ft | 102 kts | 237° |
| 2026-05-04 23:28 | 28.08407 | -107.02263 | 8347 ft | 98 kts | 236° |
| 2026-05-04 23:29 | 28.08002 | -107.02883 | 8345 ft | 96 kts | 236° |
| 2026-05-04 23:29 | 28.07622 | -107.03455 | 8346 ft | 88 kts | 236° |
| 2026-05-04 23:29 | 28.07254 | -107.04007 | 8347 ft | 88 kts | 237° |
| 2026-05-04 23:29 | 28.06883 | -107.04573 | 8353 ft | 90 kts | 238° |
| 2026-05-04 23:30 | 28.06507 | -107.05145 | 8355 ft | 88 kts | 235° |
| 2026-05-04 23:30 | 28.06142 | -107.05688 | 8358 ft | 87 kts | 236° |
| 2026-05-04 23:30 | 28.05784 | -107.06218 | 8358 ft | 83 kts | 238° |
| 2026-05-04 23:30 | 28.05428 | -107.06748 | 8348 ft | 84 kts | 236° |
| 2026-05-04 23:31 | 28.05107 | -107.07215 | 8368 ft | 71 kts | 238° |
| 2026-05-04 23:31 | 28.04793 | -107.07675 | 8365 ft | 76 kts | 236° |
| 2026-05-04 23:31 | 28.04464 | -107.08158 | 8373 ft | 81 kts | 239° |
| 2026-05-04 23:31 | 28.04123 | -107.08660 | 8423 ft | 80 kts | 238° |
| 2026-05-04 23:32 | 28.03781 | -107.09169 | 8477 ft | 82 kts | 237° |
| 2026-05-04 23:32 | 28.03441 | -107.09672 | 8527 ft | 82 kts | 235° |
| 2026-05-04 23:32 | 28.03093 | -107.10183 | 8583 ft | 82 kts | 236° |
| 2026-05-04 23:32 | 28.02746 | -107.10699 | 8636 ft | 82 kts | 238° |
| 2026-05-04 23:33 | 28.02404 | -107.11207 | 8669 ft | 83 kts | 237° |
| 2026-05-04 23:33 | 28.02042 | -107.11748 | 8677 ft | 89 kts | 236° |
| 2026-05-04 23:33 | 28.01666 | -107.12314 | 8680 ft | 89 kts | 235° |
| 2026-05-04 23:33 | 28.01284 | -107.12892 | 8686 ft | 95 kts | 238° |
| 2026-05-04 23:34 | 28.00903 | -107.13479 | 8686 ft | 92 kts | 237° |
| 2026-05-04 23:34 | 28.00523 | -107.14056 | 8709 ft | 91 kts | 237° |
| 2026-05-04 23:34 | 28.00156 | -107.14605 | 8726 ft | 82 kts | 240° |
| 2026-05-04 23:34 | 27.99820 | -107.15104 | 8744 ft | 79 kts | 239° |
| 2026-05-04 23:35 | 27.99483 | -107.15594 | 8782 ft | 82 kts | 237° |
| 2026-05-04 23:35 | 27.99114 | -107.16132 | 8794 ft | 92 kts | 236° |
| 2026-05-04 23:35 | 27.98716 | -107.16726 | 8797 ft | 100 kts | 239° |
| 2026-05-04 23:35 | 27.98289 | -107.17383 | 8804 ft | 106 kts | 240° |
| 2026-05-04 23:36 | 27.97859 | -107.18062 | 8803 ft | 106 kts | 237° |
| 2026-05-04 23:36 | 27.97434 | -107.18736 | 8879 ft | 103 kts | 237° |
| 2026-05-04 23:36 | 27.97016 | -107.19383 | 9003 ft | 101 kts | 239° |
| 2026-05-04 23:36 | 27.96607 | -107.20014 | 9120 ft | 98 kts | 237° |
| 2026-05-04 23:37 | 27.96234 | -107.20597 | 9234 ft | 87 kts | 237° |
| 2026-05-04 23:37 | 27.95876 | -107.21134 | 9340 ft | 85 kts | 240° |
| 2026-05-04 23:37 | 27.95535 | -107.21645 | 9457 ft | 77 kts | 240° |
| 2026-05-04 23:37 | 27.95212 | -107.22130 | 9590 ft | 79 kts | 237° |
| 2026-05-04 23:38 | 27.94875 | -107.22636 | 9715 ft | 81 kts | 235° |
| 2026-05-04 23:38 | 27.94539 | -107.23161 | 9845 ft | 84 kts | 239° |
| 2026-05-04 23:38 | 27.94191 | -107.23717 | 9968 ft | 89 kts | 237° |
| 2026-05-04 23:38 | 27.93817 | -107.24312 | 10090 ft | 96 kts | 237° |
| 2026-05-04 23:39 | 27.93420 | -107.24937 | 10108 ft | 98 kts | 236° |
| 2026-05-04 23:39 | 27.93027 | -107.25568 | 10116 ft | 98 kts | 239° |
| 2026-05-04 23:39 | 27.92625 | -107.26219 | 10118 ft | 108 kts | 238° |
| 2026-05-04 23:39 | 27.92185 | -107.26928 | 10116 ft | 110 kts | 240° |
| 2026-05-04 23:40 | 27.91741 | -107.27641 | 10116 ft | 111 kts | 240° |
| 2026-05-04 23:40 | 27.91304 | -107.28351 | 10123 ft | 110 kts | 238° |
| 2026-05-04 23:40 | 27.90870 | -107.29058 | 10115 ft | 108 kts | 238° |
| 2026-05-04 23:40 | 27.90450 | -107.29747 | 10118 ft | 105 kts | 238° |
| 2026-05-04 23:41 | 27.90018 | -107.30398 | 10114 ft | 104 kts | 239° |
| 2026-05-04 23:41 | 27.89594 | -107.31049 | 10111 ft | 102 kts | 238° |
| 2026-05-04 23:41 | 27.89188 | -107.31678 | 10126 ft | 97 kts | 238° |
| 2026-05-04 23:41 | 27.88780 | -107.32314 | 10122 ft | 103 kts | 238° |
| 2026-05-04 23:42 | 27.88357 | -107.32971 | 10133 ft | 107 kts | 237° |
| 2026-05-04 23:42 | 27.87909 | -107.33666 | 10125 ft | 108 kts | 237° |
| 2026-05-04 23:42 | 27.87473 | -107.34343 | 10116 ft | 104 kts | 237° |
| 2026-05-04 23:42 | 27.87058 | -107.34981 | 10123 ft | 101 kts | 237° |
| 2026-05-04 23:43 | 27.86632 | -107.35627 | 10129 ft | 104 kts | 237° |
| 2026-05-04 23:43 | 27.86196 | -107.36286 | 10130 ft | 104 kts | 238° |
| 2026-05-04 23:43 | 27.85771 | -107.36925 | 10125 ft | 100 kts | 237° |
| 2026-05-04 23:43 | 27.85364 | -107.37526 | 10124 ft | 92 kts | 236° |
| 2026-05-04 23:44 | 27.84986 | -107.38086 | 10122 ft | 91 kts | 237° |
| 2026-05-04 23:44 | 27.84610 | -107.38647 | 10129 ft | 90 kts | 237° |
| 2026-05-04 23:44 | 27.84235 | -107.39208 | 10126 ft | 87 kts | 238° |
| 2026-05-04 23:44 | 27.83875 | -107.39749 | 10127 ft | 85 kts | 237° |
| 2026-05-04 23:45 | 27.83518 | -107.40293 | 10138 ft | 89 kts | 237° |
| 2026-05-04 23:45 | 27.83137 | -107.40875 | 10131 ft | 93 kts | 238° |
| 2026-05-04 23:45 | 27.82751 | -107.41466 | 10150 ft | 95 kts | 238° |
| 2026-05-04 23:45 | 27.82342 | -107.42094 | 10145 ft | 100 kts | 237° |
| 2026-05-04 23:46 | 27.81932 | -107.42719 | 10153 ft | 98 kts | 238° |
| 2026-05-04 23:46 | 27.81522 | -107.43343 | 10152 ft | 100 kts | 238° |
| 2026-05-04 23:46 | 27.81471 | -107.43418 | 10155 ft | 100 kts | 238° |
| 2026-05-04 23:48 | 27.81277 | -107.43707 | 10154 ft | 98 kts | 237° |
| 2026-05-04 23:48 | 27.80876 | -107.44327 | 10144 ft | 97 kts | 237° |
| 2026-05-04 23:48 | 27.80486 | -107.44931 | 10146 ft | 95 kts | 237° |
| 2026-05-04 23:48 | 27.80091 | -107.45540 | 10152 ft | 97 kts | 237° |
| 2026-05-04 23:49 | 27.79689 | -107.46162 | 10151 ft | 98 kts | 237° |
| 2026-05-04 23:49 | 27.79287 | -107.46782 | 10156 ft | 97 kts | 238° |
| 2026-05-04 23:49 | 27.78988 | -107.47470 | 10160 ft | 96 kts | 246° |
| 2026-05-04 23:49 | 27.78721 | -107.48128 | 10133 ft | 90 kts | 245° |
| 2026-05-04 23:50 | 27.78457 | -107.48769 | 10038 ft | 91 kts | 246° |
| 2026-05-04 23:50 | 27.78198 | -107.49408 | 9945 ft | 89 kts | 246° |
| 2026-05-04 23:50 | 27.77937 | -107.50038 | 9850 ft | 90 kts | 246° |
| 2026-05-04 23:50 | 27.77668 | -107.50683 | 9747 ft | 92 kts | 245° |
| 2026-05-04 23:51 | 27.77395 | -107.51315 | 9654 ft | 91 kts | 245° |
| 2026-05-04 23:51 | 27.77114 | -107.51972 | 9549 ft | 92 kts | 246° |
| 2026-05-04 23:51 | 27.76832 | -107.52631 | 9452 ft | 92 kts | 247° |
| 2026-05-04 23:51 | 27.76564 | -107.53260 | 9347 ft | 86 kts | 247° |
| 2026-05-04 23:52 | 27.76313 | -107.53858 | 9262 ft | 86 kts | 247° |
| 2026-05-04 23:52 | 27.76039 | -107.54510 | 9161 ft | 95 kts | 246° |
| 2026-05-04 23:52 | 27.75756 | -107.55187 | 9070 ft | 96 kts | 246° |
| 2026-05-04 23:52 | 27.75468 | -107.55875 | 9062 ft | 96 kts | 247° |
| 2026-05-04 23:53 | 27.75196 | -107.56530 | 9047 ft | 88 kts | 246° |
| 2026-05-04 23:53 | 27.74951 | -107.57141 | 9058 ft | 86 kts | 246° |
| 2026-05-04 23:53 | 27.74699 | -107.57760 | 9056 ft | 87 kts | 248° |
| 2026-05-04 23:53 | 27.74456 | -107.58377 | 9010 ft | 85 kts | 248° |
| 2026-05-04 23:54 | 27.74052 | -107.58929 | 8832 ft | 101 kts | 221° |
| 2026-05-04 23:54 | 27.73407 | -107.59220 | 8849 ft | 100 kts | 203° |
| 2026-05-04 23:54 | 27.72959 | -107.59359 | 8849 ft | 98 kts | 203° |
| 2026-05-04 23:55 | 27.72814 | -107.59402 | 8808 ft | 95 kts | 204° |
| 2026-05-04 23:55 | 27.72738 | -107.60702 | 8706 ft | 111 kts | 285° |
| 2026-05-04 23:56 | 27.72986 | -107.61450 | 9019 ft | 89 kts | 284° |
| 2026-05-04 23:56 | 27.73206 | -107.62108 | 9059 ft | 92 kts | 284° |
| 2026-05-04 23:56 | 27.73439 | -107.62833 | 9073 ft | 104 kts | 283° |
| 2026-05-04 23:56 | 27.73685 | -107.63626 | 9072 ft | 110 kts | 283° |
| 2026-05-04 23:57 | 27.73712 | -107.64430 | 8968 ft | 112 kts | 237° |
| 2026-05-04 23:57 | 27.73047 | -107.64934 | 8819 ft | 115 kts | 212° |
| 2026-05-04 23:57 | 27.72326 | -107.65297 | 8780 ft | 109 kts | 208° |
| 2026-05-04 23:57 | 27.71660 | -107.65635 | 8850 ft | 104 kts | 214° |
| 2026-05-04 23:58 | 27.70994 | -107.65936 | 8834 ft | 102 kts | 206° |
| 2026-05-04 23:58 | 27.70371 | -107.66257 | 8894 ft | 96 kts | 216° |
| 2026-05-04 23:58 | 27.69662 | -107.66341 | 8843 ft | 112 kts | 177° |
| 2026-05-04 23:58 | 27.68983 | -107.65841 | 8901 ft | 120 kts | 135° |
| 2026-05-04 23:59 | 27.68647 | -107.64971 | 8941 ft | 122 kts | 111° |
| 2026-05-04 23:59 | 27.68434 | -107.64063 | 9024 ft | 121 kts | 111° |
| 2026-05-04 23:59 | 27.68252 | -107.63111 | 9068 ft | 127 kts | 106° |
| 2026-05-04 23:59 | 27.68066 | -107.62102 | 9089 ft | 130 kts | 107° |
| 2026-05-05 00:00 | 27.67919 | -107.61114 | 9183 ft | 128 kts | 97° |
| 2026-05-05 00:00 | 27.67934 | -107.60774 | 9219 ft | 128 kts | 82° |
| 2026-05-05 00:00 | 27.68888 | -107.59608 | 9127 ft | 128 kts | 14° |
| 2026-05-05 00:00 | 27.69721 | -107.59214 | 9001 ft | 131 kts | 14° |
| 2026-05-05 00:01 | 27.70580 | -107.58943 | 8969 ft | 119 kts | 343° |
| 2026-05-05 00:01 | 27.71108 | -107.59463 | 8881 ft | 101 kts | 277° |
| 2026-05-05 00:01 | 27.71120 | -107.60212 | 8675 ft | 93 kts | 259° |
| 2026-05-05 00:01 | 27.71142 | -107.60913 | 8529 ft | 87 kts | 271° |
| 2026-05-05 00:02 | 27.71245 | -107.61571 | 8403 ft | 83 kts | 279° |
| 2026-05-05 00:02 | 27.71425 | -107.62186 | 8249 ft | 82 kts | 284° |
| 2026-05-05 00:02 | 27.71627 | -107.62769 | 8162 ft | 76 kts | 286° |
| 2026-05-05 00:02 | 27.71829 | -107.63319 | 8165 ft | 79 kts | 287° |
| 2026-05-05 00:03 | 27.71956 | -107.63706 | 8143 ft | 79 kts | 281° |
| 2026-05-05 00:03 | 27.72171 | -107.64287 | 8051 ft | 77 kts | 291° |
| 2026-05-05 00:03 | 27.72340 | -107.64748 | 8023 ft | 50 kts | 293° |
| 2026-05-05 00:03 | 27.72441 | -107.65022 | 8020 ft | 30 kts | 292° |
| 2026-05-05 00:04 | 27.72532 | -107.65180 | 8021 ft | 20 kts | 4° |
| 2026-05-05 00:04 | 27.72628 | -107.65128 | 8023 ft | 10 kts | 327° |
| 2026-05-05 00:04 | 27.72676 | -107.65165 | 8026 ft | 10 kts | 22° |
| 2026-05-05 00:04 | 27.72707 | -107.65151 | 8026 ft | 0 kts | 23° |